Terminal Aerodrome Forecast
Issued by NWS Rapid City, SD

Home | Current Version | Previous Version | Text Only | Print | Product List | Glossary On
Versions: 1 2 3 4 5 6 7 8 9 10 11 12 13 14 15 16
670
FTUS43 KUNR 302320
TAFRAP
TAF
KRAP 302320Z 0100/0124 36009KT P6SM SCT250
     FM011200 33020G30KT P6SM VCSH SCT025 OVC050
     FM011500 33025G40KT P6SM SCT025 BKN070=

USA.gov is the U.S. government's official web portal to all federal, state and local government web resources and services.